Time;durP1;ratioP1;P1;durP2;ratioP2;P2;SDS_P1;SDS_P2;PMS_P1;PMS_P2;Temp;Humidity;BMP_temperature;BMP_pressure;BME280_temperature;BME280_humidity;BME280_pressure;Samples;Min_cycle;Max_cycle;Signal;HPM_P1;HPM_P2
2022/04/20 00:01:29;;;;;;;2.40;0.80;;;9.80;99.90;;;;;;4950653;29;20479;-87
2022/04/20 00:03:54;;;;;;;0.73;0.73;;;9.80;99.90;;;;;;4953085;29;20038;-86
2022/04/20 00:06:20;;;;;;;2.53;0.88;;;9.90;99.90;;;;;;4952138;28;20031;-86
2022/04/20 00:08:45;;;;;;;1.00;0.82;;;9.90;99.90;;;;;;4953147;29;20031;-86
2022/04/20 00:11:11;;;;;;;0.50;0.50;;;9.90;99.90;;;;;;4951938;29;20043;-85
2022/04/20 00:13:37;;;;;;;2.30;0.65;;;9.90;99.90;;;;;;4951716;29;20031;-86
2022/04/20 00:16:03;;;;;;;1.70;0.90;;;10.00;99.90;;;;;;4952363;28;20479;-86
2022/04/20 00:18:29;;;;;;;0.60;0.60;;;10.00;99.90;;;;;;4952985;28;20023;-86
2022/04/20 00:20:55;;;;;;;1.05;0.80;;;10.00;99.90;;;;;;4951887;28;20047;-85
2022/04/20 00:23:20;;;;;;;1.52;1.02;;;10.00;99.90;;;;;;4952866;29;20031;-85
2022/04/20 00:25:46;;;;;;;0.80;0.80;;;10.00;99.90;;;;;;4952020;29;20734;-84
2022/04/20 00:28:12;;;;;;;3.25;0.82;;;10.00;99.90;;;;;;4953047;29;20074;-85
2022/04/20 00:30:40;;;;;;;1.75;1.25;;;10.00;99.90;;;;;;4934703;29;20036;-85
2022/04/20 00:33:05;;;;;;;1.48;0.80;;;9.90;99.90;;;;;;4952240;28;20118;-85
2022/04/20 00:35:32;;;;;;;0.95;0.68;;;10.00;99.90;;;;;;4938388;29;20566;-85
2022/04/20 00:37:58;;;;;;;0.60;0.60;;;9.90;99.90;;;;;;4955853;29;20027;-85
2022/04/20 00:40:23;;;;;;;0.93;0.80;;;9.90;99.90;;;;;;4955970;29;20058;-85
2022/04/20 00:42:49;;;;;;;2.50;1.00;;;9.90;99.90;;;;;;4955770;29;20031;-84
2022/04/20 00:45:15;;;;;;;0.80;0.80;;;9.90;99.90;;;;;;4938309;29;20031;-85
2022/04/20 00:47:44;;;;;;;0.70;0.70;;;9.90;99.90;;;;;;4955508;29;20030;-84
2022/04/20 00:50:12;;;;;;;0.98;0.98;;;9.90;99.90;;;;;;4956189;29;20098;-83
2022/04/20 00:52:47;;;;;;;1.20;1.00;;;9.90;99.90;;;;;;4955661;29;20490;-83
2022/04/20 00:55:15;;;;;;;0.93;0.90;;;9.90;99.90;;;;;;4955250;29;20094;-83
2022/04/20 00:57:44;;;;;;;1.42;1.02;;;9.90;99.90;;;;;;4954633;29;20030;-84
2022/04/20 01:00:13;;;;;;;1.33;0.80;;;9.90;99.90;;;;;;4955368;29;20019;-84
2022/04/20 01:02:51;;;;;;;1.05;0.90;;;9.90;99.90;;;;;;4954923;29;20114;-84
2022/04/20 01:05:33;;;;;;;0.90;0.90;;;9.80;99.90;;;;;;4955081;28;20584;-83
2022/04/20 01:08:06;;;;;;;;;;;9.80;99.90;;;;;;4955396;29;20035;-84
2022/04/20 01:10:32;;;;;;;1.10;0.85;;;9.70;99.90;;;;;;4955347;29;19950;-83
2022/04/20 01:13:18;;;;;;;1.23;0.80;;;9.60;99.90;;;;;;4955400;29;20077;-84
2022/04/20 01:15:44;;;;;;;1.45;1.10;;;9.50;99.90;;;;;;4954791;29;20454;-84
2022/04/20 01:18:19;;;;;;;1.15;0.90;;;9.50;99.90;;;;;;4955425;29;20019;-84
2022/04/20 01:20:45;;;;;;;1.15;1.05;;;9.40;99.90;;;;;;4954529;29;20032;-83
2022/04/20 01:23:11;;;;;;;1.40;0.90;;;9.40;99.90;;;;;;4938499;29;20129;-85
2022/04/20 01:25:37;;;;;;;1.00;0.70;;;9.30;99.90;;;;;;4954807;29;20106;-84
2022/04/20 01:28:04;;;;;;;1.55;0.95;;;9.30;99.90;;;;;;4954844;29;20471;-84
2022/04/20 01:30:33;;;;;;;1.10;0.90;;;9.30;99.90;;;;;;4954966;29;20027;-84
2022/04/20 01:33:05;;;;;;;0.90;0.90;;;9.30;99.90;;;;;;4954546;29;20506;-84
2022/04/20 01:35:36;;;;;;;0.77;0.77;;;9.30;99.90;;;;;;4954487;29;20039;-84
2022/04/20 01:38:08;;;;;;;1.65;0.75;;;9.40;99.90;;;;;;4954586;29;20035;-84
2022/04/20 01:40:37;;;;;;;0.90;0.70;;;9.50;99.90;;;;;;4954447;29;20032;-83
2022/04/20 01:43:02;;;;;;;1.40;0.90;;;9.60;99.90;;;;;;4954805;29;20043;-83
2022/04/20 01:45:29;;;;;;;1.90;0.93;;;9.60;99.90;;;;;;4954439;28;20023;-83
2022/04/20 01:47:55;;;;;;;0.77;0.77;;;9.70;99.90;;;;;;4954273;29;20063;-83
2022/04/20 01:53:32;;;;;;;1.33;0.80;;;9.70;99.90;;;;;;4954699;29;20106;-84
2022/04/20 01:56:03;;;;;;;1.13;0.88;;;9.80;99.90;;;;;;4953587;29;20049;-84
2022/04/20 01:58:29;;;;;;;1.48;0.85;;;9.80;99.90;;;;;;4949963;29;20055;-85
2022/04/20 02:02:34;;;;;;;1.02;0.77;;;9.80;99.90;;;;;;4954084;29;20108;-85
2022/04/20 02:03:46;;;;;;;1.80;0.88;;;9.80;99.90;;;;;;4952558;29;20494;-84
2022/04/20 02:06:14;;;;;;;0.70;0.60;;;9.80;99.90;;;;;;4936839;29;20027;-85
2022/04/20 02:09:13;;;;;;;1.23;0.80;;;9.70;99.90;;;;;;4954116;29;20050;-84
2022/04/20 02:11:57;;;;;;;1.33;0.80;;;9.80;99.90;;;;;;4935924;29;20086;-85
2022/04/20 02:14:49;;;;;;;1.98;0.70;;;9.70;99.90;;;;;;4954588;29;20492;-85
2022/04/20 02:17:23;;;;;;;1.77;0.80;;;9.70;99.90;;;;;;4942648;29;20048;-85
2022/04/20 02:19:55;;;;;;;1.20;0.85;;;9.60;99.90;;;;;;4954352;29;20554;-84
2022/04/20 02:22:24;;;;;;;0.85;0.75;;;9.50;99.90;;;;;;4952346;29;20093;-84
2022/04/20 02:25:15;;;;;;;0.98;0.63;;;9.50;99.90;;;;;;4953909;29;20037;-85
2022/04/20 02:27:50;;;;;;;0.77;0.70;;;9.40;99.90;;;;;;4933920;29;20085;-86
2022/04/20 02:30:18;;;;;;;0.90;0.90;;;9.40;99.90;;;;;;4954011;29;20043;-85
2022/04/20 02:33:19;;;;;;;0.80;0.80;;;9.30;99.90;;;;;;4953307;29;20039;-84
2022/04/20 02:36:06;;;;;;;1.30;0.90;;;9.30;99.90;;;;;;4953025;29;20043;-84
2022/04/20 02:38:35;;;;;;;0.85;0.80;;;9.20;99.90;;;;;;4929603;29;20479;-83
2022/04/20 02:41:01;;;;;;;1.02;0.75;;;9.20;99.90;;;;;;4945356;29;20027;-86
2022/04/20 02:43:30;;;;;;;0.85;0.77;;;9.20;99.90;;;;;;4950759;29;20027;-84
2022/04/20 02:46:03;;;;;;;2.08;0.90;;;9.20;99.90;;;;;;4944694;29;20058;-83
2022/04/20 02:48:29;;;;;;;1.27;1.00;;;9.20;99.90;;;;;;4949981;29;20023;-84
2022/04/20 02:51:29;;;;;;;1.52;0.90;;;9.20;99.90;;;;;;4952790;29;20024;-85
2022/04/20 02:53:55;;;;;;;1.05;0.80;;;9.10;99.90;;;;;;4952786;29;20700;-85
2022/04/20 02:56:55;;;;;;;1.35;1.02;;;9.10;99.90;;;;;;4952363;28;20044;-85
2022/04/20 03:02:23;;;;;;;0.88;0.88;;;9.10;99.90;;;;;;4948433;29;20051;-83
2022/04/20 03:05:19;;;;;;;1.48;0.90;;;9.10;99.90;;;;;;4953047;28;20034;-84
2022/04/20 03:07:45;;;;;;;1.05;0.95;;;9.00;99.90;;;;;;4951838;29;20051;-85
2022/04/20 03:10:19;;;;;;;2.65;0.95;;;9.10;99.90;;;;;;4935929;29;20074;-85
2022/04/20 03:13:31;;;;;;;0.98;0.98;;;9.00;99.90;;;;;;4935702;29;20031;-84
2022/04/20 03:16:06;;;;;;;2.25;0.90;;;9.00;99.90;;;;;;4952166;29;20046;-85
2022/04/20 03:18:35;;;;;;;1.27;1.17;;;8.90;99.90;;;;;;4949747;29;20074;-84
2022/04/20 03:21:03;;;;;;;1.35;1.20;;;8.90;99.90;;;;;;4952458;29;20027;-84
2022/04/20 03:23:30;;;;;;;1.10;1.10;;;8.90;99.90;;;;;;4953287;29;20065;-85
2022/04/20 03:26:23;;;;;;;1.17;0.82;;;8.90;99.90;;;;;;4934250;29;20075;-84
2022/04/20 03:28:54;;;;;;;1.35;0.98;;;8.90;99.90;;;;;;4934006;29;20030;-84
2022/04/20 03:31:20;;;;;;;0.80;0.80;;;8.80;99.90;;;;;;4935251;29;20116;-85
2022/04/20 03:34:02;;;;;;;1.48;0.85;;;8.80;99.90;;;;;;4953133;29;20031;-84
2022/04/20 03:36:49;;;;;;;1.63;0.98;;;8.70;99.90;;;;;;4952342;29;20035;-84
2022/04/20 03:39:20;;;;;;;1.55;1.08;;;8.70;99.90;;;;;;4946637;29;20110;-84
2022/04/20 03:41:46;;;;;;;1.00;0.90;;;8.60;99.90;;;;;;4935071;29;20368;-83
2022/04/20 03:44:20;;;;;;;1.65;1.30;;;8.50;99.90;;;;;;4952792;29;20042;-85
2022/04/20 03:49:38;;;;;;;0.95;0.93;;;8.50;99.90;;;;;;4953239;29;20030;-84
2022/04/20 03:52:11;;;;;;;1.15;1.08;;;8.50;99.90;;;;;;4952536;29;20035;-83
2022/04/20 03:54:37;;;;;;;1.30;1.20;;;8.50;99.90;;;;;;4934889;29;20047;-83
2022/04/20 03:57:10;;;;;;;1.50;1.17;;;8.50;99.90;;;;;;4952341;29;20166;-83
2022/04/20 03:59:37;;;;;;;1.92;1.20;;;8.60;99.90;;;;;;4953110;29;20031;-83
2022/04/20 04:02:17;;;;;;;1.10;1.10;;;8.50;99.90;;;;;;4952418;29;20023;-83
2022/04/20 04:05:02;;;;;;;1.77;1.40;;;8.50;99.90;;;;;;4952332;29;20023;-83
2022/04/20 04:07:41;;;;;;;2.15;1.42;;;8.50;99.90;;;;;;4952045;28;20027;-84
2022/04/20 04:10:14;;;;;;;0.98;0.98;;;8.40;99.90;;;;;;4951302;29;20078;-83
2022/04/20 04:12:39;;;;;;;1.88;1.30;;;8.50;99.90;;;;;;4936681;29;20086;-85
2022/04/20 04:15:09;;;;;;;1.42;1.10;;;8.50;99.90;;;;;;4956449;29;20046;-82
2022/04/20 04:17:35;;;;;;;1.75;1.10;;;8.60;99.90;;;;;;4936599;29;20047;-84
2022/04/20 04:20:01;;;;;;;1.33;1.23;;;8.60;99.90;;;;;;4956332;29;20031;-83
2022/04/20 04:22:27;;;;;;;4.75;1.30;;;8.60;99.90;;;;;;4955599;29;20039;-84
2022/04/20 04:24:57;;;;;;;1.00;1.00;;;8.70;99.90;;;;;;4956120;29;20031;-84
2022/04/20 04:27:33;;;;;;;1.30;1.20;;;8.80;99.90;;;;;;4956013;29;20028;-84
2022/04/20 04:30:02;;;;;;;1.20;1.10;;;8.80;99.90;;;;;;4955686;29;20027;-84
2022/04/20 04:32:28;;;;;;;1.23;1.13;;;8.80;99.90;;;;;;4955145;29;20020;-84
2022/04/20 04:34:56;;;;;;;1.55;1.20;;;8.80;99.90;;;;;;4955919;29;20098;-83
2022/04/20 04:37:22;;;;;;;1.30;1.20;;;8.80;99.90;;;;;;4956016;29;20046;-84
2022/04/20 04:39:48;;;;;;;1.42;1.33;;;8.90;99.90;;;;;;4955887;29;20466;-84
2022/04/20 04:42:17;;;;;;;1.92;1.45;;;8.90;99.90;;;;;;4955083;29;20402;-85
2022/04/20 04:44:49;;;;;;;1.38;1.27;;;8.90;99.90;;;;;;4955642;29;20368;-85
2022/04/20 04:50:06;;;;;;;1.65;1.55;;;9.10;99.90;;;;;;4955703;29;20085;-85
2022/04/20 04:52:35;;;;;;;1.35;1.17;;;9.20;99.90;;;;;;4955346;29;20031;-84
2022/04/20 04:55:01;;;;;;;1.40;1.25;;;9.30;99.90;;;;;;4955571;29;20126;-86
2022/04/20 04:57:26;;;;;;;2.97;1.10;;;9.40;99.90;;;;;;4955358;29;20159;-84
2022/04/20 04:59:52;;;;;;;1.08;1.08;;;9.40;99.90;;;;;;4938295;29;20024;-84
2022/04/20 05:02:18;;;;;;;2.28;1.40;;;9.50;99.90;;;;;;4955169;29;20101;-84
2022/04/20 05:04:47;;;;;;;1.30;1.20;;;9.50;99.90;;;;;;4955625;28;20019;-86
2022/04/20 05:07:15;;;;;;;1.45;1.30;;;9.60;99.90;;;;;;4954793;29;20039;-84
2022/04/20 05:09:42;;;;;;;1.42;1.10;;;9.60;99.90;;;;;;4955362;29;20399;-84
2022/04/20 05:12:11;;;;;;;1.15;1.05;;;9.70;99.90;;;;;;4954595;29;20031;-84
2022/04/20 05:14:39;;;;;;;1.58;1.20;;;9.70;99.90;;;;;;4955475;29;20031;-84
2022/04/20 05:17:07;;;;;;;2.85;1.15;;;9.70;99.90;;;;;;4954994;29;20038;-84
2022/04/20 05:19:34;;;;;;;4.00;1.40;;;9.70;99.90;;;;;;4954804;28;20059;-84
2022/04/20 05:22:00;;;;;;;1.83;1.50;;;9.70;99.90;;;;;;4954799;29;20086;-84
2022/04/20 05:24:26;;;;;;;1.65;1.50;;;9.70;99.90;;;;;;4938352;29;20023;-84
2022/04/20 05:26:59;;;;;;;3.05;1.65;;;9.70;99.90;;;;;;4954524;29;20505;-84
2022/04/20 05:29:25;;;;;;;1.38;1.27;;;9.70;99.90;;;;;;4953572;29;20050;-85
2022/04/20 05:31:53;;;;;;;2.10;1.63;;;9.70;99.90;;;;;;4954614;29;20055;-84
2022/04/20 05:34:18;;;;;;;3.95;1.40;;;9.70;99.90;;;;;;4955943;29;20053;-83
2022/04/20 05:42:17;;;;;;;1.25;1.15;;;9.70;99.90;;;;;;4955001;29;20093;-86
2022/04/20 05:44:43;;;;;;;3.35;1.40;;;9.70;99.90;;;;;;4955454;29;20106;-87
2022/04/20 05:47:09;;;;;;;1.77;1.60;;;9.80;99.90;;;;;;4953016;29;20057;-85
2022/04/20 05:49:35;;;;;;;1.98;1.77;;;9.90;99.90;;;;;;4955222;29;20545;-86
2022/04/20 05:52:01;;;;;;;3.65;1.52;;;9.90;99.90;;;;;;4954290;29;20016;-86
2022/04/20 05:54:27;;;;;;;1.70;1.60;;;10.00;99.90;;;;;;4955326;29;20042;-87
2022/04/20 05:56:53;;;;;;;8.77;1.63;;;10.00;99.90;;;;;;4954352;29;20054;-87
2022/04/20 05:59:22;;;;;;;1.60;1.50;;;10.00;99.90;;;;;;4936830;29;20035;-86
2022/04/20 06:01:48;;;;;;;2.10;1.70;;;10.00;99.90;;;;;;4954665;29;20032;-87
2022/04/20 06:04:14;;;;;;;1.33;1.20;;;10.10;99.90;;;;;;4937671;29;20094;-86
2022/04/20 06:06:45;;;;;;;3.05;1.77;;;10.10;99.90;;;;;;4936351;29;20038;-87
2022/04/20 06:09:11;;;;;;;2.00;1.48;;;10.20;99.90;;;;;;4948644;29;20065;-87
2022/04/20 06:11:40;;;;;;;12.40;1.20;;;10.30;99.70;;;;;;4955054;29;20035;-86
2022/04/20 06:14:06;;;;;;;4.43;1.45;;;10.40;99.60;;;;;;4954711;29;20114;-82
2022/04/20 06:16:32;;;;;;;1.67;1.48;;;10.50;99.50;;;;;;4953339;29;20224;-84
2022/04/20 06:18:58;;;;;;;1.40;1.30;;;10.50;99.90;;;;;;4954433;29;20043;-84
2022/04/20 06:21:24;;;;;;;2.17;1.38;;;10.50;99.90;;;;;;4953696;29;20054;-85
2022/04/20 06:23:53;;;;;;;5.85;1.50;;;10.50;99.90;;;;;;4953966;29;20166;-85
2022/04/20 06:26:22;;;;;;;3.67;1.60;;;10.50;99.90;;;;;;4936261;29;20070;-85
2022/04/20 06:28:48;;;;;;;2.17;1.40;;;10.50;99.90;;;;;;4937141;29;20515;-86
2022/04/20 06:31:13;;;;;;;1.67;1.50;;;10.50;99.90;;;;;;4950038;28;20040;-84
2022/04/20 06:33:39;;;;;;;4.40;1.35;;;10.50;99.90;;;;;;4953196;29;20031;-84
2022/04/20 06:36:05;;;;;;;3.60;1.92;;;10.40;99.90;;;;;;4953929;29;20032;-85
2022/04/20 06:38:31;;;;;;;2.08;1.50;;;10.50;99.90;;;;;;4936870;29;20027;-84
2022/04/20 06:40:58;;;;;;;5.35;1.20;;;10.60;99.90;;;;;;4952506;29;20060;-85
2022/04/20 06:43:25;;;;;;;1.60;1.50;;;10.70;99.90;;;;;;4934827;29;20530;-86
2022/04/20 06:45:51;;;;;;;3.10;1.50;;;10.70;99.90;;;;;;4930471;29;20031;-84
2022/04/20 06:48:17;;;;;;;3.70;1.45;;;10.70;99.90;;;;;;4953403;29;20046;-84
2022/04/20 06:50:46;;;;;;;4.35;1.45;;;10.80;99.90;;;;;;4952876;29;20027;-84
2022/04/20 06:58:57;;;;;;;2.72;1.48;;;10.90;99.90;;;;;;4893224;29;20028;-85
2022/04/20 07:01:23;;;;;;;1.67;1.58;;;10.90;99.80;;;;;;4939576;29;20518;-84
2022/04/20 07:03:49;;;;;;;2.47;1.65;;;10.90;99.90;;;;;;4952623;29;20015;-84
2022/04/20 07:06:15;;;;;;;1.80;1.52;;;11.00;99.90;;;;;;4951893;28;20090;-85
2022/04/20 07:08:41;;;;;;;1.45;1.30;;;11.00;99.90;;;;;;4952310;29;20042;-83
2022/04/20 07:11:07;;;;;;;2.78;1.60;;;11.20;99.70;;;;;;4951623;29;20111;-85
2022/04/20 07:13:34;;;;;;;1.58;1.48;;;11.10;99.40;;;;;;4952438;29;20102;-85
2022/04/20 07:16:00;;;;;;;1.60;1.50;;;11.20;99.40;;;;;;4952651;29;20035;-85
2022/04/20 07:18:26;;;;;;;1.83;1.60;;;11.30;98.70;;;;;;4952747;29;20054;-90
2022/04/20 07:20:51;;;;;;;2.92;1.65;;;11.30;97.60;;;;;;4952535;29;20562;-87
2022/04/20 07:23:17;;;;;;;2.63;1.58;;;11.40;98.50;;;;;;4953867;29;20110;-89
2022/04/20 07:25:43;;;;;;;2.40;1.40;;;11.50;98.60;;;;;;4936103;29;20023;-84
2022/04/20 07:28:09;;;;;;;2.08;1.63;;;11.50;98.20;;;;;;4954374;29;20032;-89
2022/04/20 07:30:36;;;;;;;3.45;1.70;;;11.60;97.70;;;;;;4954631;29;20027;-92
2022/04/20 07:33:02;;;;;;;2.22;1.80;;;11.60;97.90;;;;;;4953688;29;20031;-85
2022/04/20 07:35:29;;;;;;;3.50;1.90;;;11.70;97.70;;;;;;4953766;29;20414;-89
2022/04/20 07:37:55;;;;;;;6.63;1.98;;;11.80;98.30;;;;;;4952821;29;20020;-88
2022/04/20 07:40:21;;;;;;;10.75;2.72;;;11.90;98.10;;;;;;4935573;29;20490;-87
2022/04/20 07:42:50;;;;;;;3.72;1.80;;;11.90;97.70;;;;;;4954017;28;20110;-87
2022/04/20 07:45:15;;;;;;;5.68;1.80;;;12.00;98.00;;;;;;4957434;29;20444;-88
2022/04/20 07:47:41;;;;;;;6.13;1.90;;;11.90;98.10;;;;;;4957492;29;20067;-87
2022/04/20 07:50:19;;;;;;;3.47;1.80;;;11.90;98.20;;;;;;4939668;29;20026;-87
2022/04/20 07:52:54;;;;;;;4.20;2.00;;;12.00;97.90;;;;;;4939183;29;20087;-87
2022/04/20 07:55:23;;;;;;;4.10;2.22;;;12.10;98.10;;;;;;4940581;29;20042;-87
2022/04/20 07:57:53;;;;;;;4.40;1.80;;;12.10;98.00;;;;;;4957433;29;20032;-86
2022/04/20 08:00:19;;;;;;;11.63;1.80;;;12.10;97.60;;;;;;4939944;29;20038;-88
2022/04/20 08:02:46;;;;;;;2.17;1.60;;;12.20;97.20;;;;;;4939273;29;20743;-87
2022/04/20 08:05:14;;;;;;;1.90;1.58;;;12.30;97.80;;;;;;4939774;29;20086;-87
2022/04/20 08:07:40;;;;;;;4.25;1.80;;;12.40;97.80;;;;;;4957279;29;20131;-88
2022/04/20 08:10:07;;;;;;;1.90;1.63;;;12.40;97.80;;;;;;4957878;29;20030;-87
2022/04/20 08:12:41;;;;;;;3.72;1.70;;;12.50;98.10;;;;;;4939245;29;20564;-86
2022/04/20 08:15:09;;;;;;;8.27;1.63;;;12.70;97.50;;;;;;4922945;29;20601;-87
2022/04/20 08:17:35;;;;;;;2.25;1.95;;;12.80;97.30;;;;;;4935613;29;20023;-87
2022/04/20 08:20:02;;;;;;;3.90;1.80;;;12.80;97.50;;;;;;4938786;29;20491;-87
2022/04/20 08:22:28;;;;;;;7.03;1.83;;;12.90;97.70;;;;;;4955542;29;20434;-87
2022/04/20 08:24:54;;;;;;;1.95;1.45;;;13.00;97.70;;;;;;4938669;29;20024;-87
2022/04/20 08:27:20;;;;;;;1.60;1.50;;;13.00;97.20;;;;;;4958024;29;20019;-87
2022/04/20 08:29:47;;;;;;;1.83;1.58;;;13.10;97.80;;;;;;4958137;29;20030;-86
2022/04/20 08:32:16;;;;;;;3.03;1.70;;;13.30;97.40;;;;;;4939553;29;20034;-87
2022/04/20 08:34:43;;;;;;;2.10;1.58;;;13.20;97.00;;;;;;4957190;29;20122;-87
2022/04/20 08:37:09;;;;;;;2.10;1.85;;;13.30;97.30;;;;;;4957684;29;20027;-86
2022/04/20 08:39:35;;;;;;;3.45;2.03;;;13.20;95.90;;;;;;4941697;29;20382;-87
2022/04/20 08:42:01;;;;;;;2.17;1.90;;;13.20;96.90;;;;;;4940825;29;20027;-87
2022/04/20 08:44:28;;;;;;;2.33;2.10;;;13.20;96.90;;;;;;4956790;29;20023;-87
2022/04/20 08:47:01;;;;;;;2.72;2.00;;;13.30;96.70;;;;;;4938370;29;20462;-87
2022/04/20 08:49:27;;;;;;;4.07;2.30;;;13.30;97.40;;;;;;4957152;29;20050;-87
2022/04/20 08:54:39;;;;;;;2.20;2.00;;;13.90;98.20;;;;;;4955442;28;20038;-87
2022/04/20 08:57:23;;;;;;;3.20;2.35;;;14.00;95.70;;;;;;4955944;29;20031;-87
2022/04/20 08:59:50;;;;;;;2.78;1.98;;;14.00;97.00;;;;;;4939947;29;20032;-86
2022/04/20 09:02:17;;;;;;;2.65;2.10;;;14.10;97.20;;;;;;4940072;29;20027;-87
2022/04/20 09:04:43;;;;;;;5.63;2.00;;;14.20;96.60;;;;;;4939453;29;20106;-86
2022/04/20 09:07:10;;;;;;;2.10;1.92;;;14.40;96.30;;;;;;4955933;29;20115;-88
2022/04/20 09:09:36;;;;;;;3.00;2.30;;;14.50;96.30;;;;;;4939183;29;20027;-87
2022/04/20 09:12:14;;;;;;;2.28;2.08;;;14.50;96.00;;;;;;4939158;29;20430;-87
2022/04/20 09:14:41;;;;;;;3.17;2.35;;;14.60;95.50;;;;;;4939288;29;20478;-88
2022/04/20 09:17:10;;;;;;;2.90;2.28;;;14.60;94.30;;;;;;4939247;29;20051;-88
2022/04/20 09:19:36;;;;;;;5.22;2.15;;;14.50;94.90;;;;;;4939118;29;20372;-87
2022/04/20 09:22:25;;;;;;;3.80;2.08;;;14.50;94.70;;;;;;4945413;29;20101;-87
2022/04/20 09:25:11;;;;;;;2.15;1.85;;;14.50;93.60;;;;;;4955422;29;20110;-86
2022/04/20 09:27:41;;;;;;;2.08;1.80;;;14.60;94.20;;;;;;4956727;28;20283;-86
2022/04/20 09:30:13;;;;;;;2.30;2.10;;;14.70;94.30;;;;;;4941003;29;20474;-87
2022/04/20 09:32:44;;;;;;;5.75;2.22;;;14.80;95.10;;;;;;4953144;29;20074;-87
2022/04/20 09:35:12;;;;;;;5.82;3.03;;;14.90;94.40;;;;;;4954518;29;20077;-88
2022/04/20 09:37:40;;;;;;;3.65;2.58;;;15.00;93.90;;;;;;4956003;28;20036;-86
2022/04/20 09:40:11;;;;;;;4.78;2.78;;;15.00;94.90;;;;;;4955107;29;20115;-87
2022/04/20 09:42:39;;;;;;;2.33;2.10;;;15.00;94.20;;;;;;4953129;29;20016;-88
2022/04/20 09:45:07;;;;;;;2.45;2.25;;;15.10;94.10;;;;;;4940309;29;20031;-90
2022/04/20 09:50:25;;;;;;;2.30;2.00;;;15.30;93.60;;;;;;4957652;29;20450;-84
2022/04/20 09:52:55;;;;;;;5.35;2.13;;;15.40;93.80;;;;;;4953559;29;20082;-86
2022/04/20 09:55:33;;;;;;;3.25;1.95;;;15.40;93.40;;;;;;4951627;29;20035;-87
2022/04/20 09:58:19;;;;;;;2.58;2.03;;;15.50;93.20;;;;;;4951313;29;20027;-86
2022/04/20 10:00:50;;;;;;;3.65;2.30;;;15.60;93.00;;;;;;4940249;29;20034;-86
2022/04/20 10:03:26;;;;;;;4.25;2.15;;;15.60;93.30;;;;;;4952040;28;20035;-86
2022/04/20 10:05:53;;;;;;;3.45;2.03;;;15.60;93.00;;;;;;4946920;28;20035;-85
2022/04/20 10:08:20;;;;;;;2.78;2.17;;;15.60;93.30;;;;;;4950040;28;20464;-87
2022/04/20 10:10:50;;;;;;;3.58;2.05;;;15.60;93.30;;;;;;4940330;29;20020;-86
2022/04/20 10:13:16;;;;;;;3.60;1.90;;;15.70;93.90;;;;;;4954114;29;20435;-86
2022/04/20 10:18:30;;;;;;;5.82;2.30;;;15.90;93.00;;;;;;4955848;29;20038;-86
2022/04/20 10:20:58;;;;;;;3.72;2.15;;;16.00;93.30;;;;;;4952563;29;20063;-86
2022/04/20 10:23:24;;;;;;;2.22;1.77;;;16.10;92.10;;;;;;4938320;29;20055;-85
2022/04/20 10:25:52;;;;;;;2.20;2.00;;;16.10;90.40;;;;;;4936946;29;20110;-85
2022/04/20 10:28:58;;;;;;;1.90;1.80;;;16.00;91.50;;;;;;4955993;29;20705;-87
2022/04/20 10:31:38;;;;;;;2.90;1.95;;;15.90;91.20;;;;;;4954052;29;20027;-83
2022/04/20 10:34:05;;;;;;;2.00;1.73;;;16.10;91.70;;;;;;4938907;29;20031;-86
2022/04/20 10:36:32;;;;;;;2.40;2.10;;;16.20;91.60;;;;;;4957395;29;20035;-86
2022/04/20 10:39:22;;;;;;;2.33;1.80;;;16.20;90.70;;;;;;4958411;29;20110;-88
2022/04/20 10:42:21;;;;;;;3.05;2.00;;;16.40;91.60;;;;;;4942617;29;20042;-91
2022/04/20 10:44:56;;;;;;;3.33;2.00;;;16.50;88.40;;;;;;4901730;29;20043;-90
2022/04/20 10:47:32;;;;;;;2.05;1.90;;;16.60;88.70;;;;;;4965635;29;20027;-91
2022/04/20 10:50:14;;;;;;;1.85;1.75;;;16.60;90.00;;;;;;4949643;29;20031;-90
2022/04/20 10:52:43;;;;;;;3.55;1.95;;;16.80;86.50;;;;;;4963281;29;20023;-89
2022/04/20 10:55:09;;;;;;;2.33;1.90;;;16.80;89.70;;;;;;4960615;29;20050;-92
2022/04/20 10:57:36;;;;;;;6.60;5.95;;;17.00;86.00;;;;;;4944532;29;20035;-84
2022/04/20 11:00:17;;;;;;;2.40;2.00;;;16.90;88.00;;;;;;4942844;29;20027;-88
2022/04/20 11:03:01;;;;;;;2.05;1.90;;;16.80;86.50;;;;;;4953532;29;20027;-88
2022/04/20 11:05:27;;;;;;;2.00;1.80;;;16.70;82.30;;;;;;4938719;29;20086;-83
2022/04/20 11:08:16;;;;;;;3.15;1.83;;;16.80;88.90;;;;;;4936821;29;20028;-87
2022/04/20 11:19:52;;;;;;;3.50;1.80;;;17.70;88.10;;;;;;4967600;29;20058;-90
2022/04/20 11:22:18;;;;;;;2.13;1.90;;;17.90;83.40;;;;;;4937345;29;20649;-86
2022/04/20 11:24:44;;;;;;;2.65;2.00;;;18.00;83.10;;;;;;4963981;29;20031;-90
2022/04/20 11:27:11;;;;;;;2.03;1.80;;;18.10;81.50;;;;;;4960246;28;20391;-85
2022/04/20 11:29:38;;;;;;;2.03;1.60;;;18.10;79.70;;;;;;4959334;29;20019;-85
2022/04/20 11:32:08;;;;;;;3.15;1.85;;;18.10;80.70;;;;;;4958031;29;20038;-90
2022/04/20 11:34:36;;;;;;;1.63;1.52;;;18.10;79.40;;;;;;4959352;29;20035;-85
2022/04/20 11:37:06;;;;;;;3.10;1.90;;;18.20;82.10;;;;;;4954231;29;20031;-87
2022/04/20 11:39:36;;;;;;;4.90;2.00;;;18.30;78.90;;;;;;4954216;28;20114;-81
2022/04/20 11:42:04;;;;;;;1.85;1.42;;;18.20;74.30;;;;;;4958287;28;20043;-88
2022/04/20 11:44:34;;;;;;;4.35;1.75;;;18.20;75.00;;;;;;4958314;28;20026;-89
2022/04/20 11:47:08;;;;;;;2.10;1.80;;;18.30;73.60;;;;;;4956118;28;20058;-84
2022/04/20 11:49:42;;;;;;;1.77;1.50;;;18.20;70.50;;;;;;4954109;28;20485;-85
2022/04/20 11:52:14;;;;;;;3.08;1.70;;;18.30;74.60;;;;;;4951585;29;20039;-86
2022/04/20 11:54:41;;;;;;;1.77;1.60;;;18.40;75.40;;;;;;4951011;28;20050;-84
2022/04/20 11:57:08;;;;;;;1.60;1.38;;;18.70;75.20;;;;;;4951692;28;20037;-85
2022/04/20 11:59:44;;;;;;;1.63;1.40;;;18.80;70.90;;;;;;4951819;29;20047;-84
2022/04/20 12:02:13;;;;;;;1.48;1.38;;;19.10;70.10;;;;;;4950387;29;20031;-85
2022/04/20 12:04:39;;;;;;;2.78;1.50;;;19.40;70.30;;;;;;4950792;28;20027;-84
2022/04/20 12:07:05;;;;;;;2.67;1.25;;;20.90;68.80;;;;;;4951443;28;20046;-84
2022/04/20 12:09:35;;;;;;;2.15;1.40;;;25.40;63.10;;;;;;4951629;28;20047;-86
2022/04/20 12:12:03;;;;;;;3.13;1.30;;;29.40;58.20;;;;;;4951251;28;20063;-84
2022/04/20 12:14:33;;;;;;;2.25;1.58;;;32.10;52.60;;;;;;4952265;28;20067;-85
2022/04/20 12:17:04;;;;;;;2.10;1.95;;;33.50;46.20;;;;;;4951559;28;20071;-86
2022/04/20 12:19:30;;;;;;;4.53;1.48;;;32.10;47.10;;;;;;4953874;29;20034;-87
2022/04/20 12:22:03;;;;;;;1.33;1.23;;;33.20;45.60;;;;;;4952345;28;20422;-85
2022/04/20 12:24:29;;;;;;;1.15;1.08;;;34.00;44.30;;;;;;4936490;29;20031;-87
2022/04/20 12:26:57;;;;;;;1.92;1.33;;;34.80;42.00;;;;;;4952622;29;20499;-85
2022/04/20 12:29:29;;;;;;;1.13;1.13;;;36.00;40.30;;;;;;4955429;28;20042;-87
2022/04/20 12:31:55;;;;;;;1.35;1.23;;;35.60;38.30;;;;;;4955809;29;20495;-84
2022/04/20 12:34:24;;;;;;;1.48;1.20;;;35.70;38.80;;;;;;4939756;29;20047;-83
2022/04/20 12:36:59;;;;;;;1.63;1.30;;;36.00;38.90;;;;;;4955769;29;20030;-84
2022/04/20 12:39:27;;;;;;;2.00;1.50;;;37.30;39.00;;;;;;4957388;29;20080;-84
2022/04/20 12:41:58;;;;;;;1.27;1.20;;;39.40;37.60;;;;;;4959160;29;20027;-84
2022/04/20 12:44:48;;;;;;;1.42;1.20;;;39.70;36.50;;;;;;4956358;29;20384;-84
2022/04/20 12:47:16;;;;;;;1.95;1.25;;;40.60;36.20;;;;;;4938590;29;20194;-83
2022/04/20 12:49:52;;;;;;;1.42;1.33;;;39.80;35.70;;;;;;4939488;29;20398;-84
2022/04/20 12:52:23;;;;;;;1.55;1.35;;;40.70;35.20;;;;;;4954576;29;20020;-83
2022/04/20 12:55:05;;;;;;;1.38;1.27;;;41.00;34.60;;;;;;4938805;29;20058;-83
2022/04/20 13:03:12;;;;;;;1.77;1.35;;;41.10;35.90;;;;;;4956360;29;20070;-84
2022/04/20 13:05:40;;;;;;;1.88;1.35;;;39.10;34.50;;;;;;4955721;29;20059;-86
2022/04/20 13:08:07;;;;;;;2.95;1.27;;;39.30;34.50;;;;;;4957262;29;20364;-86
2022/04/20 13:10:43;;;;;;;1.48;1.38;;;39.80;34.50;;;;;;4937795;29;20035;-84
2022/04/20 13:13:10;;;;;;;2.55;1.23;;;40.70;34.80;;;;;;4958189;29;20027;-87
2022/04/20 13:15:37;;;;;;;2.42;1.25;;;39.80;33.60;;;;;;4938648;29;20159;-86
2022/04/20 13:18:03;;;;;;;2.40;1.50;;;39.70;34.50;;;;;;4956313;29;20462;-86
2022/04/20 13:20:30;;;;;;;2.05;1.40;;;40.30;35.50;;;;;;4942210;29;20035;-85
2022/04/20 13:22:56;;;;;;;3.05;1.60;;;35.60;42.60;;;;;;4956440;29;20294;-87
2022/04/20 13:28:07;;;;;;;3.47;1.40;;;26.00;49.70;;;;;;4955070;29;20053;-88
2022/04/20 13:30:38;;;;;;;1.55;1.23;;;26.40;50.80;;;;;;4955981;28;20039;-82
2022/04/20 13:33:11;;;;;;;23.02;2.95;;;23.90;54.70;;;;;;4966068;28;20028;-86
2022/04/20 13:35:37;;;;;;;6.13;2.42;;;23.10;60.90;;;;;;4942374;29;20055;-86
2022/04/20 13:38:06;;;;;;;4.88;1.85;;;23.10;63.50;;;;;;4958627;28;20019;-84
2022/04/20 13:40:32;;;;;;;7.32;1.75;;;22.90;59.20;;;;;;4958284;28;20095;-86
2022/04/20 13:42:58;;;;;;;7.13;2.20;;;22.30;56.60;;;;;;4954398;29;20023;-86
2022/04/20 13:45:24;;;;;;;6.38;2.00;;;22.40;54.80;;;;;;4954918;29;20035;-90
2022/04/20 13:47:49;;;;;;;2.45;1.95;;;22.60;54.60;;;;;;4955125;28;20023;-87
2022/04/20 13:50:16;;;;;;;3.45;1.83;;;22.40;56.60;;;;;;4954483;29;20098;-86
2022/04/20 13:52:42;;;;;;;2.50;2.00;;;22.20;53.40;;;;;;4955232;28;20482;-88
2022/04/20 13:55:08;;;;;;;3.95;2.13;;;22.30;54.40;;;;;;4953889;29;20394;-87